sensor_id;sensor_type;location;lat;lon;timestamp;P1;durP1;ratioP1;P2;durP2;ratioP2
68484;SDS011;55472;50.060;21.960;2023-04-07T00:01:43;15.68;;;6.30;;
68484;SDS011;55472;50.060;21.960;2023-04-07T00:04:09;16.00;;;6.50;;
68484;SDS011;55472;50.060;21.960;2023-04-07T00:06:36;17.23;;;6.38;;
68484;SDS011;55472;50.060;21.960;2023-04-07T00:09:02;15.38;;;6.00;;
68484;SDS011;55472;50.060;21.960;2023-04-07T00:11:28;18.10;;;6.15;;
68484;SDS011;55472;50.060;21.960;2023-04-07T00:13:54;14.60;;;6.05;;
68484;SDS011;55472;50.060;21.960;2023-04-07T00:16:20;15.73;;;5.90;;
68484;SDS011;55472;50.060;21.960;2023-04-07T00:18:47;15.68;;;6.32;;
68484;SDS011;55472;50.060;21.960;2023-04-07T00:21:13;15.02;;;5.75;;
68484;SDS011;55472;50.060;21.960;2023-04-07T00:23:39;18.65;;;6.80;;
68484;SDS011;55472;50.060;21.960;2023-04-07T00:26:05;15.70;;;6.30;;
68484;SDS011;55472;50.060;21.960;2023-04-07T00:28:31;16.90;;;6.77;;
68484;SDS011;55472;50.060;21.960;2023-04-07T00:30:57;16.65;;;5.75;;
68484;SDS011;55472;50.060;21.960;2023-04-07T00:33:23;15.80;;;5.70;;
68484;SDS011;55472;50.060;21.960;2023-04-07T00:35:50;15.95;;;5.65;;
68484;SDS011;55472;50.060;21.960;2023-04-07T00:38:18;14.18;;;5.43;;
68484;SDS011;55472;50.060;21.960;2023-04-07T00:40:44;15.57;;;5.80;;
68484;SDS011;55472;50.060;21.960;2023-04-07T00:43:10;14.35;;;5.95;;
68484;SDS011;55472;50.060;21.960;2023-04-07T00:45:37;14.90;;;5.35;;
68484;SDS011;55472;50.060;21.960;2023-04-07T00:48:03;17.17;;;5.65;;
68484;SDS011;55472;50.060;21.960;2023-04-07T00:50:30;12.97;;;5.13;;
68484;SDS011;55472;50.060;21.960;2023-04-07T00:52:56;13.68;;;5.15;;
68484;SDS011;55472;50.060;21.960;2023-04-07T00:55:22;11.50;;;4.70;;
68484;SDS011;55472;50.060;21.960;2023-04-07T00:57:48;13.57;;;5.18;;
68484;SDS011;55472;50.060;21.960;2023-04-07T01:00:16;13.60;;;4.90;;
68484;SDS011;55472;50.060;21.960;2023-04-07T01:02:44;11.43;;;4.50;;
68484;SDS011;55472;50.060;21.960;2023-04-07T01:05:29;13.32;;;4.75;;
68484;SDS011;55472;50.060;21.960;2023-04-07T01:08:23;14.05;;;5.43;;
68484;SDS011;55472;50.060;21.960;2023-04-07T01:13:59;14.30;;;5.20;;
68484;SDS011;55472;50.060;21.960;2023-04-07T01:16:27;14.00;;;4.93;;
68484;SDS011;55472;50.060;21.960;2023-04-07T01:18:58;12.23;;;5.28;;
68484;SDS011;55472;50.060;21.960;2023-04-07T01:21:33;13.60;;;4.60;;
68484;SDS011;55472;50.060;21.960;2023-04-07T01:27:04;11.27;;;4.55;;
68484;SDS011;55472;50.060;21.960;2023-04-07T01:29:42;12.83;;;5.07;;
68484;SDS011;55472;50.060;21.960;2023-04-07T01:32:13;13.35;;;5.03;;
68484;SDS011;55472;50.060;21.960;2023-04-07T01:34:40;11.90;;;4.72;;
68484;SDS011;55472;50.060;21.960;2023-04-07T01:37:07;11.77;;;4.10;;
68484;SDS011;55472;50.060;21.960;2023-04-07T01:39:34;12.48;;;4.93;;
68484;SDS011;55472;50.060;21.960;2023-04-07T01:42:02;11.53;;;4.57;;
68484;SDS011;55472;50.060;21.960;2023-04-07T01:44:31;14.27;;;5.93;;
68484;SDS011;55472;50.060;21.960;2023-04-07T01:46:59;10.90;;;4.43;;
68484;SDS011;55472;50.060;21.960;2023-04-07T01:49:26;12.68;;;5.20;;
68484;SDS011;55472;50.060;21.960;2023-04-07T01:51:54;13.43;;;4.78;;
68484;SDS011;55472;50.060;21.960;2023-04-07T01:54:22;14.57;;;5.53;;
68484;SDS011;55472;50.060;21.960;2023-04-07T01:56:49;12.77;;;4.80;;
68484;SDS011;55472;50.060;21.960;2023-04-07T01:59:15;13.65;;;5.05;;
68484;SDS011;55472;50.060;21.960;2023-04-07T02:01:41;13.85;;;5.25;;
68484;SDS011;55472;50.060;21.960;2023-04-07T02:04:11;12.05;;;4.93;;
68484;SDS011;55472;50.060;21.960;2023-04-07T02:06:57;13.27;;;4.57;;
68484;SDS011;55472;50.060;21.960;2023-04-07T02:09:28;14.15;;;5.20;;
68484;SDS011;55472;50.060;21.960;2023-04-07T02:11:57;14.10;;;5.20;;
68484;SDS011;55472;50.060;21.960;2023-04-07T02:14:26;13.65;;;5.47;;
68484;SDS011;55472;50.060;21.960;2023-04-07T02:16:53;13.18;;;5.15;;
68484;SDS011;55472;50.060;21.960;2023-04-07T02:19:20;14.10;;;5.20;;
68484;SDS011;55472;50.060;21.960;2023-04-07T02:21:47;12.18;;;4.78;;
68484;SDS011;55472;50.060;21.960;2023-04-07T02:24:17;15.57;;;4.97;;
68484;SDS011;55472;50.060;21.960;2023-04-07T02:26:46;14.40;;;5.38;;
68484;SDS011;55472;50.060;21.960;2023-04-07T02:29:12;13.30;;;5.15;;
68484;SDS011;55472;50.060;21.960;2023-04-07T02:31:39;13.53;;;4.77;;
68484;SDS011;55472;50.060;21.960;2023-04-07T02:34:05;14.48;;;5.57;;
68484;SDS011;55472;50.060;21.960;2023-04-07T02:36:31;13.80;;;5.10;;
68484;SDS011;55472;50.060;21.960;2023-04-07T02:38:57;13.25;;;4.80;;
68484;SDS011;55472;50.060;21.960;2023-04-07T02:41:23;13.85;;;5.22;;
68484;SDS011;55472;50.060;21.960;2023-04-07T02:43:50;13.23;;;5.27;;
68484;SDS011;55472;50.060;21.960;2023-04-07T02:46:16;13.82;;;5.45;;
68484;SDS011;55472;50.060;21.960;2023-04-07T02:48:42;13.73;;;5.47;;
68484;SDS011;55472;50.060;21.960;2023-04-07T02:51:08;11.68;;;4.78;;
68484;SDS011;55472;50.060;21.960;2023-04-07T02:53:35;12.55;;;4.70;;
68484;SDS011;55472;50.060;21.960;2023-04-07T02:56:01;15.30;;;5.63;;
68484;SDS011;55472;50.060;21.960;2023-04-07T02:58:27;15.50;;;5.78;;
68484;SDS011;55472;50.060;21.960;2023-04-07T03:00:53;17.08;;;5.78;;
68484;SDS011;55472;50.060;21.960;2023-04-07T03:03:19;16.45;;;5.72;;
68484;SDS011;55472;50.060;21.960;2023-04-07T03:05:45;13.97;;;5.07;;
68484;SDS011;55472;50.060;21.960;2023-04-07T03:08:11;13.65;;;4.97;;
68484;SDS011;55472;50.060;21.960;2023-04-07T03:10:38;14.82;;;5.22;;
68484;SDS011;55472;50.060;21.960;2023-04-07T03:13:04;15.63;;;5.63;;
68484;SDS011;55472;50.060;21.960;2023-04-07T03:15:30;13.18;;;5.15;;
68484;SDS011;55472;50.060;21.960;2023-04-07T03:17:56;15.47;;;5.20;;
68484;SDS011;55472;50.060;21.960;2023-04-07T03:20:22;14.25;;;5.40;;
68484;SDS011;55472;50.060;21.960;2023-04-07T03:22:48;13.73;;;5.40;;
68484;SDS011;55472;50.060;21.960;2023-04-07T03:25:15;16.60;;;5.55;;
68484;SDS011;55472;50.060;21.960;2023-04-07T03:27:41;17.35;;;5.88;;
68484;SDS011;55472;50.060;21.960;2023-04-07T03:30:07;13.70;;;5.23;;
68484;SDS011;55472;50.060;21.960;2023-04-07T03:32:35;15.15;;;5.22;;
68484;SDS011;55472;50.060;21.960;2023-04-07T03:35:01;13.43;;;5.07;;
68484;SDS011;55472;50.060;21.960;2023-04-07T03:37:27;14.25;;;5.20;;
68484;SDS011;55472;50.060;21.960;2023-04-07T03:39:54;14.90;;;5.10;;
68484;SDS011;55472;50.060;21.960;2023-04-07T03:42:20;14.90;;;5.37;;
68484;SDS011;55472;50.060;21.960;2023-04-07T03:44:46;14.75;;;5.28;;
68484;SDS011;55472;50.060;21.960;2023-04-07T03:47:12;14.52;;;5.00;;
68484;SDS011;55472;50.060;21.960;2023-04-07T03:49:38;16.02;;;5.80;;
68484;SDS011;55472;50.060;21.960;2023-04-07T03:52:04;21.35;;;5.63;;
68484;SDS011;55472;50.060;21.960;2023-04-07T03:54:31;13.20;;;5.27;;
68484;SDS011;55472;50.060;21.960;2023-04-07T03:56:59;17.15;;;5.57;;
68484;SDS011;55472;50.060;21.960;2023-04-07T03:59:27;17.25;;;5.72;;
68484;SDS011;55472;50.060;21.960;2023-04-07T04:01:53;17.13;;;5.70;;
68484;SDS011;55472;50.060;21.960;2023-04-07T04:04:20;18.23;;;6.38;;
68484;SDS011;55472;50.060;21.960;2023-04-07T04:06:46;16.03;;;6.43;;
68484;SDS011;55472;50.060;21.960;2023-04-07T04:09:12;18.98;;;7.05;;
68484;SDS011;55472;50.060;21.960;2023-04-07T04:11:38;16.73;;;5.95;;
68484;SDS011;55472;50.060;21.960;2023-04-07T04:14:05;14.43;;;5.47;;
68484;SDS011;55472;50.060;21.960;2023-04-07T04:16:31;16.08;;;6.15;;
68484;SDS011;55472;50.060;21.960;2023-04-07T04:19:00;12.20;;;4.43;;
68484;SDS011;55472;50.060;21.960;2023-04-07T04:21:26;14.35;;;5.25;;
68484;SDS011;55472;50.060;21.960;2023-04-07T04:23:52;15.93;;;5.82;;
68484;SDS011;55472;50.060;21.960;2023-04-07T04:26:18;13.00;;;5.00;;
68484;SDS011;55472;50.060;21.960;2023-04-07T04:28:45;15.25;;;4.95;;
68484;SDS011;55472;50.060;21.960;2023-04-07T04:31:11;15.07;;;5.07;;
68484;SDS011;55472;50.060;21.960;2023-04-07T04:33:37;15.13;;;5.35;;
68484;SDS011;55472;50.060;21.960;2023-04-07T04:36:03;14.65;;;5.25;;
68484;SDS011;55472;50.060;21.960;2023-04-07T04:38:30;14.07;;;4.88;;
68484;SDS011;55472;50.060;21.960;2023-04-07T04:40:57;12.57;;;4.93;;
68484;SDS011;55472;50.060;21.960;2023-04-07T04:43:23;12.07;;;4.38;;
68484;SDS011;55472;50.060;21.960;2023-04-07T04:45:49;13.85;;;4.93;;
68484;SDS011;55472;50.060;21.960;2023-04-07T04:48:16;15.43;;;5.97;;
68484;SDS011;55472;50.060;21.960;2023-04-07T04:50:42;12.57;;;4.78;;
68484;SDS011;55472;50.060;21.960;2023-04-07T04:53:09;16.47;;;5.23;;
68484;SDS011;55472;50.060;21.960;2023-04-07T04:55:35;15.35;;;4.97;;
68484;SDS011;55472;50.060;21.960;2023-04-07T04:58:01;15.60;;;5.60;;
68484;SDS011;55472;50.060;21.960;2023-04-07T05:00:27;14.95;;;5.88;;
68484;SDS011;55472;50.060;21.960;2023-04-07T05:02:53;13.13;;;4.70;;
68484;SDS011;55472;50.060;21.960;2023-04-07T05:05:19;12.80;;;4.65;;
68484;SDS011;55472;50.060;21.960;2023-04-07T05:07:46;12.18;;;4.80;;
68484;SDS011;55472;50.060;21.960;2023-04-07T05:10:12;11.75;;;4.07;;
68484;SDS011;55472;50.060;21.960;2023-04-07T05:12:38;10.88;;;3.78;;
68484;SDS011;55472;50.060;21.960;2023-04-07T05:15:05;10.93;;;4.23;;
68484;SDS011;55472;50.060;21.960;2023-04-07T05:17:32;13.05;;;4.80;;
68484;SDS011;55472;50.060;21.960;2023-04-07T05:19:58;17.92;;;4.80;;
68484;SDS011;55472;50.060;21.960;2023-04-07T05:22:24;11.82;;;4.18;;
68484;SDS011;55472;50.060;21.960;2023-04-07T05:24:50;13.27;;;4.60;;
68484;SDS011;55472;50.060;21.960;2023-04-07T05:27:16;14.57;;;5.17;;
68484;SDS011;55472;50.060;21.960;2023-04-07T05:29:42;16.27;;;5.60;;
68484;SDS011;55472;50.060;21.960;2023-04-07T05:32:08;11.40;;;3.88;;
68484;SDS011;55472;50.060;21.960;2023-04-07T05:34:34;11.90;;;4.55;;
68484;SDS011;55472;50.060;21.960;2023-04-07T05:37:01;12.50;;;4.00;;
68484;SDS011;55472;50.060;21.960;2023-04-07T05:39:27;10.63;;;3.97;;
68484;SDS011;55472;50.060;21.960;2023-04-07T05:41:53;16.50;;;5.95;;
68484;SDS011;55472;50.060;21.960;2023-04-07T05:44:21;15.73;;;5.57;;
68484;SDS011;55472;50.060;21.960;2023-04-07T05:46:47;11.43;;;4.30;;
68484;SDS011;55472;50.060;21.960;2023-04-07T05:49:13;13.20;;;5.40;;
68484;SDS011;55472;50.060;21.960;2023-04-07T05:51:40;14.77;;;5.27;;
68484;SDS011;55472;50.060;21.960;2023-04-07T05:54:06;16.10;;;6.55;;
68484;SDS011;55472;50.060;21.960;2023-04-07T05:56:32;16.33;;;4.65;;
68484;SDS011;55472;50.060;21.960;2023-04-07T05:58:58;12.38;;;5.07;;
68484;SDS011;55472;50.060;21.960;2023-04-07T06:01:26;12.98;;;4.85;;
68484;SDS011;55472;50.060;21.960;2023-04-07T06:03:53;13.03;;;4.60;;
68484;SDS011;55472;50.060;21.960;2023-04-07T06:06:20;14.98;;;4.90;;
68484;SDS011;55472;50.060;21.960;2023-04-07T06:08:46;14.30;;;6.00;;
68484;SDS011;55472;50.060;21.960;2023-04-07T06:11:12;16.55;;;5.78;;
68484;SDS011;55472;50.060;21.960;2023-04-07T06:13:38;15.30;;;5.30;;
68484;SDS011;55472;50.060;21.960;2023-04-07T06:16:04;16.57;;;5.63;;
68484;SDS011;55472;50.060;21.960;2023-04-07T06:18:31;14.93;;;5.60;;
68484;SDS011;55472;50.060;21.960;2023-04-07T06:20:57;12.63;;;4.90;;
68484;SDS011;55472;50.060;21.960;2023-04-07T06:23:23;13.73;;;5.32;;
68484;SDS011;55472;50.060;21.960;2023-04-07T06:25:49;24.90;;;8.63;;
68484;SDS011;55472;50.060;21.960;2023-04-07T06:28:17;14.90;;;5.70;;
68484;SDS011;55472;50.060;21.960;2023-04-07T06:30:44;15.10;;;5.07;;
68484;SDS011;55472;50.060;21.960;2023-04-07T06:33:10;14.57;;;4.93;;
68484;SDS011;55472;50.060;21.960;2023-04-07T06:35:38;13.63;;;5.40;;
68484;SDS011;55472;50.060;21.960;2023-04-07T06:38:05;13.55;;;5.38;;
68484;SDS011;55472;50.060;21.960;2023-04-07T06:40:32;14.27;;;5.47;;
68484;SDS011;55472;50.060;21.960;2023-04-07T06:42:58;15.32;;;5.47;;
68484;SDS011;55472;50.060;21.960;2023-04-07T06:45:24;17.35;;;6.05;;
68484;SDS011;55472;50.060;21.960;2023-04-07T06:47:50;13.73;;;5.65;;
68484;SDS011;55472;50.060;21.960;2023-04-07T06:50:16;13.07;;;5.10;;
68484;SDS011;55472;50.060;21.960;2023-04-07T06:52:45;15.90;;;5.77;;
68484;SDS011;55472;50.060;21.960;2023-04-07T06:55:11;14.75;;;5.97;;
68484;SDS011;55472;50.060;21.960;2023-04-07T06:57:37;16.17;;;6.00;;
68484;SDS011;55472;50.060;21.960;2023-04-07T07:00:03;16.05;;;5.30;;
68484;SDS011;55472;50.060;21.960;2023-04-07T07:02:32;15.50;;;5.65;;
68484;SDS011;55472;50.060;21.960;2023-04-07T07:04:59;14.17;;;5.90;;
68484;SDS011;55472;50.060;21.960;2023-04-07T07:07:28;14.95;;;5.45;;
68484;SDS011;55472;50.060;21.960;2023-04-07T07:09:54;16.90;;;6.05;;
68484;SDS011;55472;50.060;21.960;2023-04-07T07:12:20;20.30;;;7.45;;
68484;SDS011;55472;50.060;21.960;2023-04-07T07:14:46;19.55;;;7.82;;
68484;SDS011;55472;50.060;21.960;2023-04-07T07:17:13;19.60;;;7.83;;
68484;SDS011;55472;50.060;21.960;2023-04-07T07:19:39;21.73;;;7.55;;
68484;SDS011;55472;50.060;21.960;2023-04-07T07:22:05;22.85;;;7.93;;
68484;SDS011;55472;50.060;21.960;2023-04-07T07:24:31;20.52;;;7.47;;
68484;SDS011;55472;50.060;21.960;2023-04-07T07:26:58;23.33;;;8.10;;
68484;SDS011;55472;50.060;21.960;2023-04-07T07:29:26;16.03;;;6.73;;
68484;SDS011;55472;50.060;21.960;2023-04-07T07:31:52;15.23;;;6.43;;
68484;SDS011;55472;50.060;21.960;2023-04-07T07:34:20;16.15;;;5.63;;
68484;SDS011;55472;50.060;21.960;2023-04-07T07:36:46;14.55;;;6.15;;
68484;SDS011;55472;50.060;21.960;2023-04-07T07:39:12;20.40;;;7.00;;
68484;SDS011;55472;50.060;21.960;2023-04-07T07:41:38;18.00;;;6.60;;
68484;SDS011;55472;50.060;21.960;2023-04-07T07:44:06;18.92;;;8.35;;
68484;SDS011;55472;50.060;21.960;2023-04-07T07:46:32;19.90;;;7.88;;
68484;SDS011;55472;50.060;21.960;2023-04-07T07:48:58;17.50;;;7.32;;
68484;SDS011;55472;50.060;21.960;2023-04-07T07:51:24;18.33;;;7.57;;
68484;SDS011;55472;50.060;21.960;2023-04-07T07:53:52;18.50;;;7.80;;
68484;SDS011;55472;50.060;21.960;2023-04-07T07:56:18;18.25;;;7.78;;
68484;SDS011;55472;50.060;21.960;2023-04-07T07:58:44;18.40;;;7.05;;
68484;SDS011;55472;50.060;21.960;2023-04-07T08:01:11;16.75;;;6.60;;
68484;SDS011;55472;50.060;21.960;2023-04-07T08:03:37;18.52;;;6.63;;
68484;SDS011;55472;50.060;21.960;2023-04-07T08:06:03;17.40;;;6.80;;
68484;SDS011;55472;50.060;21.960;2023-04-07T08:08:31;18.35;;;7.00;;
68484;SDS011;55472;50.060;21.960;2023-04-07T08:10:57;17.95;;;6.97;;
68484;SDS011;55472;50.060;21.960;2023-04-07T08:13:23;17.80;;;6.80;;
68484;SDS011;55472;50.060;21.960;2023-04-07T08:15:49;17.00;;;6.85;;
68484;SDS011;55472;50.060;21.960;2023-04-07T08:18:15;18.57;;;6.87;;
68484;SDS011;55472;50.060;21.960;2023-04-07T08:20:41;18.73;;;7.07;;
68484;SDS011;55472;50.060;21.960;2023-04-07T08:23:07;17.45;;;6.82;;
68484;SDS011;55472;50.060;21.960;2023-04-07T08:25:33;19.45;;;8.23;;
68484;SDS011;55472;50.060;21.960;2023-04-07T08:28:00;18.13;;;7.05;;
68484;SDS011;55472;50.060;21.960;2023-04-07T08:30:26;16.50;;;6.77;;
68484;SDS011;55472;50.060;21.960;2023-04-07T08:32:52;18.73;;;7.15;;
68484;SDS011;55472;50.060;21.960;2023-04-07T08:35:19;20.88;;;7.65;;
68484;SDS011;55472;50.060;21.960;2023-04-07T08:37:46;18.95;;;7.43;;
68484;SDS011;55472;50.060;21.960;2023-04-07T08:40:13;21.00;;;8.02;;
68484;SDS011;55472;50.060;21.960;2023-04-07T08:42:41;20.97;;;7.77;;
68484;SDS011;55472;50.060;21.960;2023-04-07T08:45:11;55.42;;;17.05;;
68484;SDS011;55472;50.060;21.960;2023-04-07T08:47:38;64.22;;;20.40;;
68484;SDS011;55472;50.060;21.960;2023-04-07T08:50:09;70.22;;;21.42;;
68484;SDS011;55472;50.060;21.960;2023-04-07T08:55:27;33.27;;;13.30;;
68484;SDS011;55472;50.060;21.960;2023-04-07T08:58:05;21.15;;;7.93;;
68484;SDS011;55472;50.060;21.960;2023-04-07T09:00:41;17.23;;;8.27;;
68484;SDS011;55472;50.060;21.960;2023-04-07T09:03:10;18.05;;;6.70;;
68484;SDS011;55472;50.060;21.960;2023-04-07T09:05:37;18.83;;;7.50;;
68484;SDS011;55472;50.060;21.960;2023-04-07T09:08:04;16.03;;;6.97;;
68484;SDS011;55472;50.060;21.960;2023-04-07T09:10:30;16.23;;;6.55;;
68484;SDS011;55472;50.060;21.960;2023-04-07T09:12:57;18.05;;;7.13;;
68484;SDS011;55472;50.060;21.960;2023-04-07T09:15:24;14.80;;;7.25;;
68484;SDS011;55472;50.060;21.960;2023-04-07T09:17:56;17.70;;;7.25;;
68484;SDS011;55472;50.060;21.960;2023-04-07T09:20:23;22.27;;;7.77;;
68484;SDS011;55472;50.060;21.960;2023-04-07T09:22:50;14.50;;;7.13;;
68484;SDS011;55472;50.060;21.960;2023-04-07T09:28:03;18.15;;;7.70;;
68484;SDS011;55472;50.060;21.960;2023-04-07T09:30:30;19.33;;;7.90;;
68484;SDS011;55472;50.060;21.960;2023-04-07T09:32:58;15.43;;;6.50;;
68484;SDS011;55472;50.060;21.960;2023-04-07T09:35:26;17.15;;;6.28;;
68484;SDS011;55472;50.060;21.960;2023-04-07T09:38:11;16.30;;;6.53;;
68484;SDS011;55472;50.060;21.960;2023-04-07T09:40:37;15.07;;;6.57;;
68484;SDS011;55472;50.060;21.960;2023-04-07T09:43:03;16.10;;;6.75;;
68484;SDS011;55472;50.060;21.960;2023-04-07T09:45:31;17.70;;;7.00;;
68484;SDS011;55472;50.060;21.960;2023-04-07T09:47:59;17.92;;;6.80;;
68484;SDS011;55472;50.060;21.960;2023-04-07T09:50:42;14.68;;;6.45;;
68484;SDS011;55472;50.060;21.960;2023-04-07T09:53:16;14.88;;;6.38;;
68484;SDS011;55472;50.060;21.960;2023-04-07T09:55:47;17.30;;;6.72;;
68484;SDS011;55472;50.060;21.960;2023-04-07T09:58:14;17.80;;;6.63;;
68484;SDS011;55472;50.060;21.960;2023-04-07T10:00:41;15.82;;;7.07;;
68484;SDS011;55472;50.060;21.960;2023-04-07T10:03:08;15.25;;;6.35;;
68484;SDS011;55472;50.060;21.960;2023-04-07T10:05:34;17.17;;;7.18;;
68484;SDS011;55472;50.060;21.960;2023-04-07T10:08:01;16.88;;;6.88;;
68484;SDS011;55472;50.060;21.960;2023-04-07T10:10:30;14.07;;;5.40;;
68484;SDS011;55472;50.060;21.960;2023-04-07T10:12:57;14.80;;;6.13;;
68484;SDS011;55472;50.060;21.960;2023-04-07T10:15:24;14.70;;;6.28;;
68484;SDS011;55472;50.060;21.960;2023-04-07T10:17:50;15.48;;;6.35;;
68484;SDS011;55472;50.060;21.960;2023-04-07T10:20:18;17.98;;;6.63;;
68484;SDS011;55472;50.060;21.960;2023-04-07T10:22:47;14.87;;;6.67;;
68484;SDS011;55472;50.060;21.960;2023-04-07T10:25:16;16.25;;;6.57;;
68484;SDS011;55472;50.060;21.960;2023-04-07T10:27:58;16.85;;;7.13;;
68484;SDS011;55472;50.060;21.960;2023-04-07T10:30:30;19.73;;;7.55;;
68484;SDS011;55472;50.060;21.960;2023-04-07T10:32:57;18.30;;;7.45;;
68484;SDS011;55472;50.060;21.960;2023-04-07T10:35:23;15.63;;;6.70;;
68484;SDS011;55472;50.060;21.960;2023-04-07T10:40:42;19.33;;;7.15;;
68484;SDS011;55472;50.060;21.960;2023-04-07T10:43:09;18.73;;;7.32;;
68484;SDS011;55472;50.060;21.960;2023-04-07T10:48:14;18.03;;;7.23;;
68484;SDS011;55472;50.060;21.960;2023-04-07T10:50:43;18.20;;;7.40;;
68484;SDS011;55472;50.060;21.960;2023-04-07T10:53:12;24.50;;;8.77;;
68484;SDS011;55472;50.060;21.960;2023-04-07T10:58:16;22.60;;;8.45;;
68484;SDS011;55472;50.060;21.960;2023-04-07T11:06:10;25.05;;;9.88;;
68484;SDS011;55472;50.060;21.960;2023-04-07T11:11:07;18.45;;;7.65;;
68484;SDS011;55472;50.060;21.960;2023-04-07T11:13:48;18.10;;;7.07;;
68484;SDS011;55472;50.060;21.960;2023-04-07T11:16:16;20.02;;;8.10;;
68484;SDS011;55472;50.060;21.960;2023-04-07T11:18:44;18.60;;;7.85;;
68484;SDS011;55472;50.060;21.960;2023-04-07T11:21:18;18.02;;;7.35;;
68484;SDS011;55472;50.060;21.960;2023-04-07T11:23:44;34.63;;;12.88;;
68484;SDS011;55472;50.060;21.960;2023-04-07T11:26:12;16.33;;;6.87;;
68484;SDS011;55472;50.060;21.960;2023-04-07T11:28:53;15.05;;;6.78;;
68484;SDS011;55472;50.060;21.960;2023-04-07T11:31:27;16.85;;;6.70;;
68484;SDS011;55472;50.060;21.960;2023-04-07T11:33:56;21.15;;;8.32;;
68484;SDS011;55472;50.060;21.960;2023-04-07T11:36:30;25.55;;;10.27;;
68484;SDS011;55472;50.060;21.960;2023-04-07T11:39:02;29.00;;;10.23;;
68484;SDS011;55472;50.060;21.960;2023-04-07T11:41:29;38.42;;;12.82;;
68484;SDS011;55472;50.060;21.960;2023-04-07T11:44:04;40.20;;;13.32;;
68484;SDS011;55472;50.060;21.960;2023-04-07T11:46:32;17.67;;;7.10;;
68484;SDS011;55472;50.060;21.960;2023-04-07T11:49:12;23.58;;;8.50;;
68484;SDS011;55472;50.060;21.960;2023-04-07T11:51:41;24.43;;;8.53;;
68484;SDS011;55472;50.060;21.960;2023-04-07T11:54:09;18.00;;;8.05;;
68484;SDS011;55472;50.060;21.960;2023-04-07T11:56:42;17.77;;;7.15;;
68484;SDS011;55472;50.060;21.960;2023-04-07T11:59:20;16.63;;;5.88;;
68484;SDS011;55472;50.060;21.960;2023-04-07T12:01:49;16.38;;;6.63;;
68484;SDS011;55472;50.060;21.960;2023-04-07T12:04:17;22.07;;;8.93;;
68484;SDS011;55472;50.060;21.960;2023-04-07T12:06:44;20.15;;;8.90;;
68484;SDS011;55472;50.060;21.960;2023-04-07T12:09:25;24.20;;;9.88;;
68484;SDS011;55472;50.060;21.960;2023-04-07T12:11:55;21.08;;;8.82;;
68484;SDS011;55472;50.060;21.960;2023-04-07T12:14:22;22.60;;;9.15;;
68484;SDS011;55472;50.060;21.960;2023-04-07T12:16:52;24.77;;;10.03;;
68484;SDS011;55472;50.060;21.960;2023-04-07T12:19:21;24.25;;;10.60;;
68484;SDS011;55472;50.060;21.960;2023-04-07T12:21:49;22.35;;;10.85;;
68484;SDS011;55472;50.060;21.960;2023-04-07T12:24:15;22.88;;;10.30;;
68484;SDS011;55472;50.060;21.960;2023-04-07T12:26:41;17.92;;;9.00;;
68484;SDS011;55472;50.060;21.960;2023-04-07T12:29:08;20.87;;;8.80;;
68484;SDS011;55472;50.060;21.960;2023-04-07T12:31:34;15.02;;;7.00;;
68484;SDS011;55472;50.060;21.960;2023-04-07T12:34:01;15.52;;;7.15;;
68484;SDS011;55472;50.060;21.960;2023-04-07T12:36:27;19.38;;;7.25;;
68484;SDS011;55472;50.060;21.960;2023-04-07T12:38:57;21.80;;;7.23;;
68484;SDS011;55472;50.060;21.960;2023-04-07T12:41:23;18.10;;;7.35;;
68484;SDS011;55472;50.060;21.960;2023-04-07T12:43:50;19.30;;;9.63;;
68484;SDS011;55472;50.060;21.960;2023-04-07T12:46:17;31.08;;;17.15;;
68484;SDS011;55472;50.060;21.960;2023-04-07T12:48:45;45.05;;;22.00;;
68484;SDS011;55472;50.060;21.960;2023-04-07T12:51:12;17.80;;;7.13;;
68484;SDS011;55472;50.060;21.960;2023-04-07T12:53:38;20.77;;;7.85;;
68484;SDS011;55472;50.060;21.960;2023-04-07T12:56:04;18.85;;;7.22;;
68484;SDS011;55472;50.060;21.960;2023-04-07T12:58:31;28.92;;;10.13;;
68484;SDS011;55472;50.060;21.960;2023-04-07T13:00:57;35.60;;;12.05;;
68484;SDS011;55472;50.060;21.960;2023-04-07T13:03:25;23.00;;;8.87;;
68484;SDS011;55472;50.060;21.960;2023-04-07T13:05:51;15.23;;;6.35;;
68484;SDS011;55472;50.060;21.960;2023-04-07T13:08:19;18.73;;;7.38;;
68484;SDS011;55472;50.060;21.960;2023-04-07T13:10:46;18.67;;;7.80;;
68484;SDS011;55472;50.060;21.960;2023-04-07T13:13:12;24.40;;;10.48;;
68484;SDS011;55472;50.060;21.960;2023-04-07T13:15:38;15.80;;;7.63;;
68484;SDS011;55472;50.060;21.960;2023-04-07T13:18:04;17.40;;;7.25;;
68484;SDS011;55472;50.060;21.960;2023-04-07T13:20:31;14.02;;;6.63;;
68484;SDS011;55472;50.060;21.960;2023-04-07T13:22:57;15.55;;;6.70;;
68484;SDS011;55472;50.060;21.960;2023-04-07T13:25:23;17.10;;;7.90;;
68484;SDS011;55472;50.060;21.960;2023-04-07T13:27:49;18.70;;;9.27;;
68484;SDS011;55472;50.060;21.960;2023-04-07T13:30:15;19.45;;;8.55;;
68484;SDS011;55472;50.060;21.960;2023-04-07T13:32:41;16.80;;;8.07;;
68484;SDS011;55472;50.060;21.960;2023-04-07T13:35:07;22.98;;;9.63;;
68484;SDS011;55472;50.060;21.960;2023-04-07T13:37:34;18.70;;;7.53;;
68484;SDS011;55472;50.060;21.960;2023-04-07T13:40:00;18.30;;;7.15;;
68484;SDS011;55472;50.060;21.960;2023-04-07T13:42:26;14.10;;;6.75;;
68484;SDS011;55472;50.060;21.960;2023-04-07T13:44:52;18.55;;;7.38;;
68484;SDS011;55472;50.060;21.960;2023-04-07T13:47:19;16.95;;;7.38;;
68484;SDS011;55472;50.060;21.960;2023-04-07T13:49:48;20.73;;;7.97;;
68484;SDS011;55472;50.060;21.960;2023-04-07T13:52:16;17.88;;;7.60;;
68484;SDS011;55472;50.060;21.960;2023-04-07T13:54:43;19.38;;;8.63;;
68484;SDS011;55472;50.060;21.960;2023-04-07T13:57:09;25.33;;;10.80;;
68484;SDS011;55472;50.060;21.960;2023-04-07T13:59:36;17.75;;;8.07;;
68484;SDS011;55472;50.060;21.960;2023-04-07T14:02:02;17.60;;;8.17;;
68484;SDS011;55472;50.060;21.960;2023-04-07T14:04:28;23.55;;;8.88;;
68484;SDS011;55472;50.060;21.960;2023-04-07T14:06:54;19.30;;;8.68;;
68484;SDS011;55472;50.060;21.960;2023-04-07T14:09:21;19.10;;;8.05;;
68484;SDS011;55472;50.060;21.960;2023-04-07T14:11:47;19.63;;;9.50;;
68484;SDS011;55472;50.060;21.960;2023-04-07T14:14:13;18.37;;;8.40;;
68484;SDS011;55472;50.060;21.960;2023-04-07T14:16:39;18.75;;;8.27;;
68484;SDS011;55472;50.060;21.960;2023-04-07T14:19:05;24.05;;;10.30;;
68484;SDS011;55472;50.060;21.960;2023-04-07T14:21:31;30.80;;;12.63;;
68484;SDS011;55472;50.060;21.960;2023-04-07T14:23:57;32.13;;;11.77;;
68484;SDS011;55472;50.060;21.960;2023-04-07T14:26:24;26.00;;;10.23;;
68484;SDS011;55472;50.060;21.960;2023-04-07T14:28:51;30.55;;;11.32;;
68484;SDS011;55472;50.060;21.960;2023-04-07T14:31:17;22.10;;;9.20;;
68484;SDS011;55472;50.060;21.960;2023-04-07T14:33:43;23.50;;;9.88;;
68484;SDS011;55472;50.060;21.960;2023-04-07T14:36:12;24.33;;;9.80;;
68484;SDS011;55472;50.060;21.960;2023-04-07T14:38:40;24.65;;;9.50;;
68484;SDS011;55472;50.060;21.960;2023-04-07T14:41:08;23.67;;;10.15;;
68484;SDS011;55472;50.060;21.960;2023-04-07T14:43:34;23.38;;;9.93;;
68484;SDS011;55472;50.060;21.960;2023-04-07T14:46:01;28.00;;;11.00;;
68484;SDS011;55472;50.060;21.960;2023-04-07T14:48:27;20.83;;;9.30;;
68484;SDS011;55472;50.060;21.960;2023-04-07T14:50:53;28.35;;;10.30;;